createdAt,value
2023-02-03T05:55:22.758Z,11.10
2023-02-03T05:57:51.770Z,12.70
2023-02-03T06:00:21.047Z,11.60
2023-02-03T06:03:01.936Z,9.10
2023-02-03T06:06:02.979Z,9.40
2023-02-03T06:30:11.206Z,11.50
2023-02-03T06:32:38.662Z,12.30
2023-02-03T06:35:17.910Z,11.50
2023-02-03T06:37:44.749Z,10.00
2023-02-03T06:40:12.441Z,11.60
2023-02-03T06:42:46.638Z,9.80
2023-02-03T06:45:14.487Z,11.10
2023-02-03T06:47:42.916Z,11.20
2023-02-03T06:50:14.090Z,11.70
2023-02-03T06:52:46.186Z,9.90
2023-02-03T06:55:13.055Z,7.80
2023-02-03T06:57:51.931Z,10.30
2023-02-03T07:00:23.977Z,10.10
2023-02-03T07:06:07.093Z,11.20
2023-02-03T07:08:44.123Z,12.70
2023-02-03T07:11:11.582Z,11.70
2023-02-03T07:13:38.474Z,11.20
2023-02-03T07:16:06.261Z,11.70
2023-02-03T07:18:46.833Z,10.30
2023-02-03T07:21:17.086Z,13.40
2023-02-03T07:23:47.737Z,10.70
2023-02-03T07:26:45.967Z,11.90
2023-02-03T07:29:19.423Z,10.70
2023-02-03T07:31:46.952Z,11.00
2023-02-03T07:34:16.564Z,12.90
2023-02-03T07:36:43.793Z,9.40
2023-02-03T07:39:10.981Z,12.00
2023-02-03T07:41:37.921Z,9.90
2023-02-03T07:44:05.121Z,11.70
2023-02-03T07:46:32.255Z,12.60
2023-02-03T07:49:18.170Z,10.50
2023-02-03T07:55:12.419Z,14.70
2023-02-03T07:57:42.688Z,11.60
2023-02-03T08:00:12.023Z,10.90
2023-02-03T08:02:53.449Z,10.40
2023-02-03T08:05:54.040Z,9.60
2023-02-03T08:10:20.228Z,8.40
2023-02-03T08:28:20.937Z,8.80
2023-02-03T08:30:49.398Z,8.50
2023-02-03T08:33:16.957Z,9.40
2023-02-03T08:35:56.398Z,7.60
2023-02-03T08:38:23.657Z,11.60
2023-02-03T08:40:55.030Z,6.80
2023-02-03T08:43:22.892Z,8.20
2023-02-03T08:46:02.950Z,8.20
2023-02-03T08:48:38.783Z,8.80
2023-02-03T08:51:14.075Z,9.60
2023-02-03T08:53:43.146Z,10.50
2023-02-03T08:56:25.923Z,6.50
2023-02-03T08:58:55.976Z,11.60
2023-02-03T09:01:23.461Z,11.50
2023-02-03T09:03:51.497Z,11.20
2023-02-03T09:06:24.115Z,9.90
2023-02-03T09:09:04.345Z,9.90
2023-02-03T09:11:35.644Z,11.50
2023-02-03T09:14:02.827Z,9.70
2023-02-03T09:16:36.127Z,16.20
2023-02-03T09:19:03.597Z,10.80
2023-02-03T09:21:33.364Z,10.30
2023-02-03T09:24:03.456Z,10.60
2023-02-03T09:26:30.815Z,10.60
2023-02-03T09:28:57.645Z,13.60
2023-02-03T09:31:24.339Z,11.70
2023-02-03T09:33:51.676Z,14.90
2023-02-03T09:36:18.801Z,13.80
2023-02-03T09:38:45.751Z,10.80
2023-02-03T09:41:34.277Z,13.40
2023-02-03T09:44:29.853Z,14.90
2023-02-03T09:55:38.231Z,12.60
2023-02-03T09:58:06.227Z,11.50
2023-02-03T10:00:42.218Z,13.70
2023-02-03T10:03:18.730Z,13.30
2023-02-03T10:06:16.354Z,10.70
2023-02-03T10:09:23.881Z,13.60
2023-02-03T10:12:19.351Z,11.80
2023-02-03T10:14:55.098Z,12.20
2023-02-03T10:17:32.346Z,15.00
2023-02-03T10:20:11.376Z,10.40
2023-02-03T10:22:50.632Z,11.20
2023-02-03T10:25:33.417Z,11.10
2023-02-03T10:28:29.073Z,13.60
2023-02-03T10:31:13.916Z,11.10
2023-02-03T10:34:19.301Z,10.60
2023-02-03T10:37:05.200Z,15.30
2023-02-03T10:40:01.844Z,15.50
2023-02-03T10:43:07.717Z,15.00
2023-02-03T10:45:37.978Z,12.10
2023-02-03T10:48:15.967Z,11.10
2023-02-03T10:50:49.747Z,13.30
2023-02-03T10:53:35.223Z,11.20
2023-02-03T10:56:12.887Z,10.80
2023-02-03T10:58:49.203Z,11.90
2023-02-03T11:01:20.909Z,10.10
2023-02-03T11:03:59.924Z,10.20
2023-02-03T11:06:27.393Z,10.00
2023-02-03T11:08:54.614Z,11.30
2023-02-03T11:11:27.656Z,11.00
2023-02-03T11:14:10.239Z,10.40
2023-02-03T11:16:56.180Z,11.50
2023-02-03T11:19:23.251Z,11.80
2023-02-03T11:21:53.730Z,13.80
2023-02-03T11:24:24.558Z,14.40
2023-02-03T11:26:59.524Z,13.60
2023-02-03T11:29:34.045Z,10.80
2023-02-03T11:32:19.138Z,11.60
2023-02-03T11:34:51.555Z,12.40
2023-02-03T11:40:08.462Z,14.80
2023-02-03T11:42:44.873Z,14.20
2023-02-03T11:45:25.788Z,11.50
2023-02-03T11:48:07.380Z,13.60
2023-02-03T11:50:41.365Z,11.60
2023-02-03T11:53:14.026Z,16.40
2023-02-03T11:58:35.543Z,14.80
2023-02-03T12:29:51.813Z,12.60
2023-02-03T12:32:59.821Z,14.10
2023-02-03T12:43:48.791Z,13.80
2023-02-03T12:46:55.740Z,11.50
2023-02-03T12:50:01.782Z,15.20
2023-02-03T12:53:13.767Z,14.20
2023-02-03T12:56:10.250Z,15.30
2023-02-03T12:58:49.184Z,18.80
2023-02-03T13:01:49.212Z,13.50
2023-02-03T13:04:38.077Z,14.00
2023-02-03T13:07:31.752Z,14.80
2023-02-03T13:37:57.559Z,23.70
2023-02-03T13:40:42.732Z,19.10
2023-02-03T13:43:17.378Z,16.20
2023-02-03T13:45:51.635Z,17.50
2023-02-03T13:48:28.314Z,19.40
2023-02-03T13:51:34.128Z,17.80
2023-02-03T13:54:07.246Z,18.20
2023-02-03T13:56:34.207Z,17.00
2023-02-03T13:59:27.983Z,19.70
2023-02-03T14:02:26.572Z,17.70
2023-02-03T14:04:55.703Z,16.90
2023-02-03T14:07:28.402Z,20.30
2023-02-03T14:10:07.476Z,25.50
2023-02-03T14:12:51.208Z,26.90
2023-02-03T14:15:20.437Z,21.00
2023-02-03T14:17:47.189Z,26.00
2023-02-03T14:20:26.260Z,23.80
2023-02-03T14:23:15.270Z,27.90
2023-02-03T14:25:50.166Z,20.50
2023-02-03T14:28:24.731Z,13.30
2023-02-03T14:31:02.637Z,15.10
2023-02-03T14:33:45.615Z,14.90
2023-02-03T14:36:37.301Z,12.90
2023-02-03T14:39:37.632Z,14.00
2023-02-03T14:42:22.475Z,11.30
2023-02-03T14:45:34.191Z,14.60
2023-02-03T14:48:28.843Z,9.60
2023-02-03T14:51:01.760Z,12.20
2023-02-03T14:53:56.514Z,13.70
2023-02-03T14:57:15.287Z,12.50
2023-02-03T14:59:57.454Z,10.50
2023-02-03T15:02:27.233Z,12.30
2023-02-03T15:05:13.120Z,7.20
2023-02-03T15:07:45.804Z,8.70
2023-02-03T15:10:26.354Z,7.20
2023-02-03T15:12:55.544Z,15.70
2023-02-03T15:15:37.963Z,20.50
2023-02-03T15:18:39.160Z,17.40
2023-02-03T15:21:13.990Z,19.10
2023-02-03T15:23:47.167Z,16.60
2023-02-03T15:26:20.390Z,15.00
2023-02-03T15:28:58.485Z,17.40
2023-02-03T15:31:44.193Z,15.70
2023-02-03T15:34:34.719Z,15.50
2023-02-03T16:15:49.702Z,27.70
2023-02-03T16:18:17.493Z,27.40
2023-02-03T16:20:50.312Z,27.80
2023-02-03T16:23:22.985Z,24.40
2023-02-03T16:28:52.860Z,25.10
2023-02-03T16:31:39.980Z,24.80
2023-02-03T16:34:34.953Z,24.80
2023-02-03T16:37:49.016Z,26.90
2023-02-03T16:40:38.797Z,25.80
2023-02-03T16:43:31.635Z,24.50
2023-02-03T16:46:18.772Z,26.00
2023-02-03T16:49:24.617Z,29.70
2023-02-03T16:51:51.819Z,28.70
2023-02-03T16:54:19.105Z,24.70
2023-02-03T16:56:51.483Z,34.50
2023-02-03T16:59:20.272Z,25.20
2023-02-03T17:01:48.183Z,29.50
2023-02-03T17:04:16.645Z,27.00
2023-02-03T17:06:45.371Z,35.20
2023-02-03T17:09:12.635Z,33.10
2023-02-03T17:11:39.499Z,32.50
2023-02-03T17:14:06.258Z,35.20
2023-02-03T17:16:32.921Z,31.90
2023-02-03T17:18:59.979Z,29.00
2023-02-03T17:21:29.107Z,29.10
2023-02-03T17:23:59.714Z,29.40
2023-02-03T17:26:26.644Z,31.40
2023-02-03T17:28:57.973Z,35.60
2023-02-03T17:31:25.202Z,37.20
2023-02-03T17:33:52.211Z,27.20
2023-02-03T17:36:21.176Z,32.30
2023-02-03T18:09:43.204Z,28.80
2023-02-03T18:15:57.583Z,27.50
2023-02-03T18:24:44.279Z,28.50
2023-02-03T18:27:17.377Z,34.50
2023-02-03T18:29:46.403Z,31.20
2023-02-03T18:32:14.976Z,35.20
2023-02-03T18:34:42.525Z,41.70
2023-02-03T18:37:11.136Z,38.80
2023-02-03T18:39:38.429Z,37.10
2023-02-03T18:42:11.796Z,26.80
2023-02-03T18:44:43.898Z,26.90
2023-02-03T18:47:12.536Z,33.40
2023-02-03T18:49:40.264Z,25.70
2023-02-03T18:52:07.325Z,35.80
2023-02-03T18:54:34.194Z,31.30
2023-02-03T18:57:02.642Z,33.10
2023-02-03T18:59:31.337Z,28.80
2023-02-03T19:01:58.797Z,37.10
2023-02-03T19:04:26.272Z,30.70
2023-02-03T19:06:54.215Z,31.30
2023-02-03T19:19:14.107Z,27.30
2023-02-03T19:21:44.400Z,30.20
2023-02-03T19:24:21.081Z,37.70
2023-02-03T19:26:56.088Z,27.00
2023-02-03T20:56:21.533Z,33.70
2023-02-03T20:58:49.397Z,24.20
2023-02-03T21:01:25.288Z,24.40
2023-02-03T21:39:13.748Z,16.90
2023-02-03T21:41:53.320Z,17.00
2023-02-03T21:45:10.102Z,22.70
2023-02-03T21:48:40.300Z,21.20
2023-02-03T21:51:20.548Z,22.00
2023-02-03T21:53:54.964Z,21.90
2023-02-03T21:56:29.746Z,19.00
2023-02-03T21:58:59.330Z,18.30
2023-02-03T22:01:34.189Z,19.30
2023-02-03T22:04:03.240Z,18.50
2023-02-03T22:06:48.581Z,15.10
2023-02-03T22:09:23.015Z,14.60
2023-02-03T22:11:50.396Z,15.00
2023-02-03T22:14:20.428Z,19.20
2023-02-03T22:16:51.817Z,17.60
2023-02-03T22:19:18.906Z,17.80
2023-02-03T22:21:47.889Z,14.30
2023-02-03T22:24:15.045Z,12.70
2023-02-03T22:26:42.361Z,14.50
2023-02-03T22:29:09.391Z,12.90
2023-02-03T22:31:36.452Z,22.20
2023-02-03T22:34:03.793Z,22.90
2023-02-03T22:36:30.982Z,24.50
2023-02-03T22:38:58.181Z,14.40
2023-02-03T22:41:25.544Z,14.60
2023-02-03T22:43:52.557Z,12.10
2023-02-03T22:46:19.651Z,14.30
2023-02-03T22:48:47.001Z,13.90
2023-02-03T22:51:14.127Z,12.90
2023-02-03T22:53:44.244Z,17.00
2023-02-03T22:56:12.335Z,13.70
2023-02-03T22:58:59.430Z,18.00
2023-02-03T23:01:26.349Z,14.60
2023-02-03T23:10:24.879Z,22.40
2023-02-03T23:12:51.765Z,17.50
2023-02-03T23:15:18.668Z,15.10
2023-02-03T23:17:45.776Z,16.10
2023-02-03T23:20:14.828Z,18.20
2023-02-03T23:25:53.013Z,14.30
2023-02-03T23:28:20.652Z,11.90
2023-02-03T23:30:47.971Z,7.90
2023-02-03T23:33:14.989Z,17.80
2023-02-03T23:35:44.614Z,12.00
2023-02-03T23:38:12.274Z,10.50
2023-02-03T23:40:39.306Z,9.90
2023-02-03T23:43:06.193Z,10.80
2023-02-03T23:46:07.162Z,7.90
2023-02-03T23:48:54.441Z,8.50
2023-02-03T23:51:35.464Z,9.20
2023-02-03T23:54:44.825Z,7.20
2023-02-03T23:57:13.090Z,15.50
2023-02-03T23:59:40.318Z,12.90
